Meath Environmental Platform

Observations

Time Sensor AQI SAQ Temp °C Hum % Pres Pa CO μg/m³ H₂S μg/m³ NO μg/m³ NO₂ μg/m³ O₃ μg/m³ SO₂ μg/m³ CO₂e PPM VOC PPM PM1 μg/m³ PM2.5 μg/m³ PM4 μg/m³ PM10 μg/m³ TPS µm
Wednesday 12 August 2026
19:53 Trim Patrick St 3 31.2 39 69,444 0 23.25 0.43 38.55 57.4 18.27 4.57 10.28 11.31
19:52 Trim Patrick St 3 31.3 38 69,432 0 22.38 0.42 29.45 60.11 18.78 2.86 10.3 11.33
19:51 Trim Patrick St 4 31.3 39 69,416 0 21.71 0.41 30.39 62.43 18.16 3.71 9.49 10.44
19:50 Trim Patrick St 4 31.2 39 69,424 0 21.64 0.42 26.04 62.17 18.34 4.57 10.28 11.31
19:49 Trim Market St 3 30.5 39 66,042 0 1.12 0.44 16.44 74.17 0 2.14 5.05 5.9
19:49 Trim Patrick St 3 31.2 39 69,434 0 26.09 0.42 41.31 55.33 18.26 5.43 11.06 12.17
19:48 Trim Patrick St 4 31.3 39 69,414 0 26.28 0.38 36.9 58.69 19.01 4.57 11.86 13.04
19:46 Trim Market St 3 30.5 39 66,037 0 0.75 0.43 15.85 84.13 0 1.43 4.52 4.98
19:46 Trim Patrick St 4 31.2 38 69,397 0 24.91 0.37 30.07 60.86 19.04 4.57 11.08 12.18
19:45 Trim Patrick St 3 31.2 38 69,399 0 25.74 0.36 30.35 61.67 19.11 4.57 9.5 10.45
19:43 Trim Patrick St 3 31.2 38 69,402 0 28.54 0.36 30.2 64.78 19.6 4.57 11.09 12.2
19:42 Trim Market St 3 30.5 39 66,019 0 3.19 0.42 17.23 82.49 0 2.14 5.05 5.09
19:41 Trim Market St 3 30.4 39 66,031 0 4.19 0.43 18.18 76.82 0 0.71 3.45 3.8
19:41 Trim Patrick St 3 31.2 39 69,416 0 29.96 0.36 53.89 50.95 18.98 5.43 11.06 12.17
19:40 Trim Market St 3 30.5 39 66,017 0 4.82 0.42 18.68 80.09 0 2.85 5.58 5.9
19:39 Trim Market St 3 30.5 39 66,021 0 5.9 0.42 19.85 83.91 0 1.43 5.05 6.71
19:39 Trim Patrick St 3 31.2 39 69,399 0 33.61 0.34 40.72 62.27 20.45 6.29 11.82 13
19:38 Trim Market St 3 30.5 39 66,058 0 4.55 0.43 17.71 75.74 0 2.14 5.58 5.9
19:37 Trim Market St 3 30.5 39 66,080 0 6.43 0.43 22.26 80.56 0 2.14 5.05 5.09
19:36 Trim Patrick St 4 31.2 39 69,401 0 37.77 0.36 48.06 57.26 20.96 2 7.91 8.7